Time;durP1;ratioP1;P1;durP2;ratioP2;P2;SDS_P1;SDS_P2;PMS_P1;PMS_P2;Temp;Humidity;BMP_temperature;BMP_pressure;BME280_temperature;BME280_humidity;BME280_pressure;Samples;Min_cycle;Max_cycle;Signal;HPM_P1;HPM_P2
2022/06/22 00:00:40;;;;;;;2.67;2.47;;;21.60;99.90;;;;;;5073722;28;21057;-75
2022/06/22 00:03:09;;;;;;;6.27;2.80;;;21.60;99.90;;;;;;5073722;28;21116;-76
2022/06/22 00:05:43;;;;;;;5.20;2.43;;;21.50;99.90;;;;;;5073605;28;20622;-74
2022/06/22 00:08:16;;;;;;;4.80;2.43;;;21.50;99.90;;;;;;5073884;28;20623;-74
2022/06/22 00:10:59;;;;;;;2.57;2.40;;;21.40;99.90;;;;;;5072339;28;20627;-74
2022/06/22 00:13:29;;;;;;;3.07;2.00;;;21.30;99.90;;;;;;5072012;28;20980;-74
2022/06/22 00:16:06;;;;;;;2.80;2.50;;;21.10;99.90;;;;;;5072350;28;20641;-74
2022/06/22 00:18:34;;;;;;;7.70;2.97;;;20.90;99.90;;;;;;5073671;28;21188;-74
2022/06/22 00:21:24;;;;;;;5.63;2.13;;;20.80;99.90;;;;;;5072729;28;20982;-73
2022/06/22 00:23:55;;;;;;;2.27;2.13;;;20.80;99.90;;;;;;5074525;28;20578;-74
2022/06/22 00:26:24;;;;;;;4.57;1.97;;;20.80;99.90;;;;;;5074271;28;20570;-74
2022/06/22 00:28:59;;;;;;;3.03;2.73;;;20.80;99.90;;;;;;5076352;28;20598;-75
2022/06/22 00:31:42;;;;;;;3.23;2.33;;;20.90;99.90;;;;;;5078109;28;20968;-75
2022/06/22 00:34:08;;;;;;;3.37;2.30;;;20.90;99.90;;;;;;5077963;28;20593;-75
2022/06/22 00:36:45;;;;;;;2.40;2.20;;;20.90;99.90;;;;;;5077824;28;20614;-74
2022/06/22 00:39:23;;;;;;;3.43;2.07;;;20.80;99.90;;;;;;5077178;28;20618;-74
2022/06/22 00:41:55;;;;;;;5.37;2.10;;;20.80;99.90;;;;;;5077148;28;20653;-73
2022/06/22 00:44:24;;;;;;;3.33;2.10;;;20.80;99.90;;;;;;5077148;28;20679;-75
2022/06/22 00:47:02;;;;;;;4.10;2.10;;;20.80;99.90;;;;;;5075130;28;21168;-74
2022/06/22 00:49:31;;;;;;;2.30;2.00;;;20.70;99.90;;;;;;5076394;28;21241;-74
2022/06/22 00:52:05;;;;;;;2.50;2.40;;;20.60;99.90;;;;;;5077028;28;21168;-75
2022/06/22 00:54:34;;;;;;;5.83;2.50;;;20.60;99.90;;;;;;5077613;28;20574;-73
2022/06/22 00:57:19;;;;;;;2.80;2.60;;;20.50;99.90;;;;;;5077136;28;20640;-74
2022/06/22 00:59:53;;;;;;;4.07;2.03;;;20.50;99.90;;;;;;5076724;28;21131;-74
2022/06/22 01:02:33;;;;;;;3.23;1.73;;;20.50;99.90;;;;;;5075283;28;20677;-74
2022/06/22 01:05:14;;;;;;;4.93;2.53;;;20.50;99.90;;;;;;5076976;28;20648;-74
2022/06/22 01:08:06;;;;;;;3.47;2.50;;;20.50;99.90;;;;;;5076784;28;20665;-75
2022/06/22 01:10:57;;;;;;;5.07;2.30;;;20.40;99.90;;;;;;5077066;28;20630;-74
2022/06/22 01:13:34;;;;;;;3.00;2.23;;;20.40;99.90;;;;;;5076969;28;20588;-75
2022/06/22 01:16:09;;;;;;;4.43;2.47;;;20.40;99.90;;;;;;5077339;28;20582;-74
2022/06/22 01:18:42;;;;;;;4.00;2.30;;;20.40;99.90;;;;;;5076811;28;20668;-74
2022/06/22 01:21:24;;;;;;;2.20;2.00;;;20.40;99.90;;;;;;5076894;28;20622;-74
2022/06/22 01:24:24;;;;;;;2.80;2.00;;;20.40;99.90;;;;;;5076890;28;20936;-74
2022/06/22 01:27:24;;;;;;;2.90;2.70;;;20.40;99.90;;;;;;5075960;28;20617;-74
2022/06/22 01:29:56;;;;;;;5.13;2.10;;;20.40;99.90;;;;;;5075801;28;20976;-75
2022/06/22 01:32:27;;;;;;;2.10;2.00;;;20.40;99.90;;;;;;5076072;28;20967;-75
2022/06/22 01:35:00;;;;;;;1.90;1.80;;;20.50;99.90;;;;;;5076221;28;20984;-75
2022/06/22 01:37:32;;;;;;;2.67;2.47;;;20.60;99.90;;;;;;5075818;28;20621;-74
2022/06/22 01:40:25;;;;;;;2.80;2.10;;;20.70;99.90;;;;;;5074168;28;20621;-73
2022/06/22 01:43:07;;;;;;;2.53;1.90;;;20.70;99.90;;;;;;5075456;28;20633;-73
2022/06/22 01:45:44;;;;;;;3.97;1.80;;;20.70;99.90;;;;;;5075409;28;20625;-74
2022/06/22 01:48:44;;;;;;;2.80;1.90;;;20.70;99.90;;;;;;5075998;28;20994;-75
2022/06/22 01:51:31;;;;;;;2.53;2.10;;;20.60;99.90;;;;;;5074877;28;20589;-73
2022/06/22 01:54:08;;;;;;;2.43;1.93;;;20.70;99.90;;;;;;5076214;28;20574;-74
2022/06/22 01:56:40;;;;;;;2.43;2.20;;;20.80;99.90;;;;;;5075798;28;20590;-74
2022/06/22 01:59:27;;;;;;;2.13;2.03;;;20.80;99.90;;;;;;5075358;28;21204;-74
2022/06/22 02:01:59;;;;;;;5.97;2.37;;;20.70;99.90;;;;;;5075339;28;20653;-74
2022/06/22 02:04:36;;;;;;;2.53;2.33;;;20.60;99.90;;;;;;5075610;28;20613;-74
2022/06/22 02:10:12;;;;;;;3.10;2.00;;;20.40;99.90;;;;;;5075334;28;20567;-74
2022/06/22 02:12:45;;;;;;;3.50;2.40;;;20.40;99.90;;;;;;5074531;28;20618;-73
2022/06/22 02:15:34;;;;;;;2.37;2.17;;;20.30;99.90;;;;;;5075482;28;20590;-73
2022/06/22 02:18:02;;;;;;;2.30;2.10;;;20.30;99.90;;;;;;5075339;28;20700;-74
2022/06/22 02:20:33;;;;;;;2.07;1.87;;;20.30;99.90;;;;;;5075119;28;21172;-74
2022/06/22 02:23:16;;;;;;;2.60;2.17;;;20.20;99.90;;;;;;5075229;28;20594;-74
2022/06/22 02:25:54;;;;;;;2.73;2.50;;;20.10;99.90;;;;;;5075368;28;20702;-74
2022/06/22 02:28:21;;;;;;;2.60;2.47;;;20.00;99.90;;;;;;5075002;28;20582;-74
2022/06/22 02:30:48;;;;;;;4.30;2.20;;;20.00;99.90;;;;;;5075547;28;20679;-74
2022/06/22 02:33:15;;;;;;;10.33;2.80;;;19.90;99.90;;;;;;5074906;28;20962;-74
2022/06/22 02:35:43;;;;;;;1.97;1.87;;;19.90;99.90;;;;;;5074812;28;20633;-74
2022/06/22 02:38:14;;;;;;;2.17;2.03;;;19.80;99.90;;;;;;5073227;28;20922;-74
2022/06/22 02:46:20;;;;;;;3.73;2.00;;;19.70;99.90;;;;;;5074523;28;20579;-74
2022/06/22 02:48:52;;;;;;;3.47;2.60;;;19.60;99.90;;;;;;5073890;28;20630;-73
2022/06/22 02:51:25;;;;;;;4.63;1.73;;;19.60;99.90;;;;;;5073072;28;20640;-75
2022/06/22 02:53:55;;;;;;;2.10;1.90;;;19.60;99.90;;;;;;5072954;28;20606;-78
2022/06/22 02:56:31;;;;;;;5.23;2.20;;;19.60;99.90;;;;;;5074216;28;21156;-74
2022/06/22 02:58:57;;;;;;;4.40;2.00;;;19.60;99.90;;;;;;5074465;28;20610;-74
2022/06/22 03:01:29;;;;;;;2.20;1.90;;;19.60;99.90;;;;;;5074185;28;20654;-74
2022/06/22 03:03:59;;;;;;;3.27;2.40;;;19.70;99.90;;;;;;5074548;28;20605;-74
2022/06/22 03:06:30;;;;;;;5.97;2.27;;;19.60;99.90;;;;;;5074333;28;20610;-74
2022/06/22 03:09:03;;;;;;;2.40;2.30;;;19.70;99.90;;;;;;5074151;28;20607;-74
2022/06/22 03:11:32;;;;;;;3.10;2.80;;;19.70;99.90;;;;;;5074342;28;20579;-74
2022/06/22 03:14:33;;;;;;;2.70;2.37;;;19.70;99.90;;;;;;5074404;28;20622;-74
2022/06/22 03:17:02;;;;;;;2.27;1.90;;;19.70;99.90;;;;;;5070260;28;20988;-74
2022/06/22 03:19:36;;;;;;;3.63;2.17;;;19.70;99.90;;;;;;5072703;28;20610;-75
2022/06/22 03:22:03;;;;;;;2.50;2.30;;;19.70;99.90;;;;;;5074181;28;20599;-74
2022/06/22 03:24:40;;;;;;;4.50;2.00;;;19.70;99.90;;;;;;5073809;28;21156;-74
2022/06/22 03:27:19;;;;;;;3.37;2.10;;;19.70;99.90;;;;;;5074069;28;20983;-75
2022/06/22 03:29:53;;;;;;;2.33;2.23;;;19.70;99.90;;;;;;5073807;28;20625;-75
2022/06/22 03:32:29;;;;;;;3.43;2.83;;;19.80;99.90;;;;;;5074005;28;20621;-74
2022/06/22 03:35:33;;;;;;;2.30;2.20;;;19.80;99.90;;;;;;5073836;28;20622;-73
2022/06/22 03:38:11;;;;;;;2.20;2.10;;;19.80;99.90;;;;;;5073990;28;20574;-73
2022/06/22 03:40:58;;;;;;;3.30;3.00;;;19.70;99.90;;;;;;5073880;28;20574;-73
2022/06/22 03:43:51;;;;;;;3.63;2.40;;;19.70;99.90;;;;;;5073567;28;21055;-74
2022/06/22 03:46:42;;;;;;;2.07;1.97;;;19.70;99.90;;;;;;5073607;28;20571;-74
2022/06/22 03:49:18;;;;;;;8.10;2.30;;;19.60;99.90;;;;;;5073007;28;20649;-74
2022/06/22 03:51:53;;;;;;;3.87;2.37;;;19.60;99.90;;;;;;5073873;28;20606;-73
2022/06/22 03:54:31;;;;;;;3.90;2.37;;;19.60;99.90;;;;;;5073908;28;21019;-73
2022/06/22 03:57:01;;;;;;;2.50;2.30;;;19.60;99.90;;;;;;5074051;28;20635;-73
2022/06/22 03:59:28;;;;;;;3.53;2.20;;;19.70;99.90;;;;;;5073843;28;20628;-74
2022/06/22 04:01:56;;;;;;;5.00;2.67;;;19.70;99.90;;;;;;5073428;28;20650;-73
2022/06/22 04:04:24;;;;;;;2.47;2.10;;;19.70;99.90;;;;;;5073666;28;20606;-74
2022/06/22 04:06:53;;;;;;;3.03;2.10;;;19.80;99.90;;;;;;5074009;28;20663;-75
2022/06/22 04:09:23;;;;;;;2.40;2.30;;;19.90;99.90;;;;;;5073009;28;20631;-74
2022/06/22 04:12:09;;;;;;;2.50;2.40;;;19.80;99.90;;;;;;5073680;28;20606;-75
2022/06/22 04:15:04;;;;;;;4.43;2.47;;;19.90;99.90;;;;;;5074230;28;20620;-74
2022/06/22 04:17:45;;;;;;;11.87;2.47;;;20.00;99.90;;;;;;5073287;28;21157;-74
2022/06/22 04:20:22;;;;;;;4.20;3.03;;;19.90;99.90;;;;;;5073847;28;20579;-74
2022/06/22 04:22:55;;;;;;;2.57;2.33;;;19.90;99.90;;;;;;5073276;28;20629;-74
2022/06/22 04:25:42;;;;;;;2.33;2.13;;;19.70;99.90;;;;;;5073321;28;21213;-74
2022/06/22 04:28:12;;;;;;;4.30;2.43;;;19.70;99.90;;;;;;5071581;28;20629;-75
2022/06/22 04:30:45;;;;;;;2.87;2.00;;;19.60;99.90;;;;;;5073214;28;20629;-75
2022/06/22 04:33:20;;;;;;;2.20;2.10;;;19.50;99.90;;;;;;5073652;28;20581;-72
2022/06/22 04:36:01;;;;;;;4.33;2.07;;;19.70;99.90;;;;;;5074064;28;21099;-74
2022/06/22 04:38:33;;;;;;;2.60;2.40;;;19.80;99.90;;;;;;5073302;28;20586;-72
2022/06/22 04:40:59;;;;;;;2.53;2.33;;;19.90;99.90;;;;;;5073643;28;20567;-74
2022/06/22 04:43:26;;;;;;;4.30;2.37;;;19.90;99.90;;;;;;5073131;28;21251;-74
2022/06/22 04:45:53;;;;;;;2.97;2.40;;;20.00;99.90;;;;;;5072034;28;21164;-74
2022/06/22 04:48:24;;;;;;;2.50;2.30;;;19.90;99.90;;;;;;5072797;28;20642;-74
2022/06/22 04:50:57;;;;;;;3.67;2.70;;;19.90;99.90;;;;;;5072907;28;20642;-74
2022/06/22 04:53:44;;;;;;;2.70;2.27;;;19.90;99.90;;;;;;5072917;28;21131;-73
2022/06/22 04:56:14;;;;;;;4.20;2.37;;;19.90;99.90;;;;;;5072964;28;20633;-74
2022/06/22 04:58:48;;;;;;;5.57;2.23;;;19.90;99.90;;;;;;5073383;28;20625;-75
2022/06/22 05:01:40;;;;;;;6.13;2.07;;;20.00;99.90;;;;;;5073163;28;20966;-74
2022/06/22 05:04:13;;;;;;;3.93;2.17;;;19.90;99.90;;;;;;5072808;28;20688;-74
2022/06/22 05:06:55;;;;;;;3.30;2.37;;;19.90;99.90;;;;;;5073548;28;20574;-73
2022/06/22 05:09:42;;;;;;;7.97;2.43;;;19.90;99.90;;;;;;5073193;28;20589;-74
2022/06/22 05:12:20;;;;;;;7.23;2.57;;;19.90;99.90;;;;;;5073464;28;21060;-75
2022/06/22 05:14:48;;;;;;;2.87;2.67;;;19.90;99.90;;;;;;5075338;28;21199;-74
2022/06/22 05:17:34;;;;;;;2.83;2.40;;;19.80;99.90;;;;;;5076902;28;20606;-74
2022/06/22 05:20:21;;;;;;;8.97;3.30;;;19.80;99.90;;;;;;5076644;28;20583;-74
2022/06/22 05:22:50;;;;;;;8.23;2.50;;;19.90;99.90;;;;;;5076427;28;20930;-73
2022/06/22 05:25:17;;;;;;;5.27;2.60;;;20.10;99.90;;;;;;5076354;28;20624;-74
2022/06/22 05:27:56;;;;;;;6.60;2.40;;;20.00;99.90;;;;;;5076521;28;20617;-73
2022/06/22 05:30:23;;;;;;;4.23;2.60;;;20.00;99.90;;;;;;5075180;28;21007;-74
2022/06/22 05:32:55;;;;;;;9.87;3.40;;;19.90;99.90;;;;;;5076365;28;21180;-74
2022/06/22 05:35:26;;;;;;;5.50;3.07;;;19.90;99.90;;;;;;5076813;28;20979;-74
2022/06/22 05:37:56;;;;;;;3.63;2.50;;;19.90;99.90;;;;;;5075904;28;20551;-74
2022/06/22 05:40:27;;;;;;;3.83;2.30;;;19.80;99.90;;;;;;5076295;28;20624;-74
2022/06/22 05:42:54;;;;;;;6.93;2.47;;;19.70;99.90;;;;;;5074524;28;20771;-75
2022/06/22 05:45:36;;;;;;;7.50;2.47;;;19.90;99.90;;;;;;5076417;28;20199;-73
2022/06/22 05:48:04;;;;;;;2.53;2.30;;;19.80;99.90;;;;;;5076870;28;20645;-73
2022/06/22 05:50:38;;;;;;;7.73;2.90;;;19.70;99.90;;;;;;5075834;28;20649;-73
2022/06/22 05:53:17;;;;;;;4.83;3.60;;;19.60;99.90;;;;;;5076362;28;20622;-74
2022/06/22 05:56:02;;;;;;;3.70;2.83;;;19.70;99.90;;;;;;5076444;28;20614;-73
2022/06/22 05:58:33;;;;;;;6.50;5.00;;;19.50;99.90;;;;;;5076462;28;20602;-72
2022/06/22 06:01:05;;;;;;;8.90;3.77;;;19.30;99.90;;;;;;5076677;28;20594;-72
2022/06/22 06:03:34;;;;;;;4.23;3.23;;;19.40;99.90;;;;;;5076189;28;20597;-73
2022/06/22 06:06:07;;;;;;;7.83;3.10;;;19.50;99.90;;;;;;5075470;28;20610;-73
2022/06/22 06:08:43;;;;;;;4.00;2.90;;;19.50;99.90;;;;;;5075465;28;20579;-73
2022/06/22 06:11:22;;;;;;;2.70;2.47;;;19.50;99.90;;;;;;5075874;28;20566;-73
2022/06/22 06:13:58;;;;;;;3.83;2.83;;;19.70;99.90;;;;;;5075281;28;21005;-73
2022/06/22 06:16:34;;;;;;;3.13;2.13;;;19.60;99.90;;;;;;5075280;28;20614;-71
2022/06/22 06:19:05;;;;;;;2.33;2.23;;;19.70;99.90;;;;;;5074970;28;20589;-71
2022/06/22 06:21:36;;;;;;;6.30;2.60;;;19.70;99.90;;;;;;5075215;28;21224;-71
2022/06/22 06:24:32;;;;;;;3.20;2.73;;;19.70;99.90;;;;;;5074312;28;20610;-71
2022/06/22 06:30:21;;;;;;;2.30;2.13;;;19.90;99.90;;;;;;5073756;28;20602;-72
2022/06/22 06:32:54;;;;;;;4.47;2.73;;;20.10;99.90;;;;;;5074609;28;20586;-72
2022/06/22 06:35:38;;;;;;;4.53;3.20;;;20.10;99.90;;;;;;5074743;28;20574;-71
2022/06/22 06:38:35;;;;;;;8.70;2.90;;;20.10;99.90;;;;;;5074530;28;21120;-72
2022/06/22 06:41:12;;;;;;;6.57;2.30;;;20.00;99.90;;;;;;5074971;28;20606;-71
2022/06/22 06:43:48;;;;;;;7.43;2.57;;;20.00;99.90;;;;;;5074915;28;20704;-72
2022/06/22 06:46:36;;;;;;;2.47;2.00;;;19.90;99.90;;;;;;5074993;28;20617;-71
2022/06/22 06:49:22;;;;;;;4.77;2.30;;;19.80;99.90;;;;;;5072558;28;20643;-72
2022/06/22 06:52:03;;;;;;;4.37;2.90;;;19.80;99.90;;;;;;5076024;28;20570;-76
2022/06/22 06:54:36;;;;;;;5.10;2.77;;;19.90;99.90;;;;;;5076123;28;20621;-76
2022/06/22 06:57:09;;;;;;;10.13;2.40;;;20.10;99.90;;;;;;5075196;28;20589;-76
2022/06/22 06:59:36;;;;;;;4.93;2.47;;;20.20;99.90;;;;;;5075091;28;20947;-76
2022/06/22 07:02:29;;;;;;;3.67;2.80;;;20.20;99.90;;;;;;5076602;28;21242;-76
2022/06/22 07:04:57;;;;;;;3.43;2.53;;;20.30;99.90;;;;;;5077771;28;20611;-75
2022/06/22 07:07:37;;;;;;;2.80;2.60;;;20.40;99.90;;;;;;5080561;28;20621;-75
2022/06/22 07:10:24;;;;;;;5.90;2.60;;;20.40;99.90;;;;;;5080543;28;20566;-75
2022/06/22 07:12:53;;;;;;;5.57;2.53;;;20.50;99.90;;;;;;5077549;28;21101;-76
2022/06/22 07:15:26;;;;;;;3.83;2.20;;;20.50;99.90;;;;;;5079068;28;20686;-76
2022/06/22 07:17:54;;;;;;;6.13;3.67;;;20.40;99.90;;;;;;5076314;28;21121;-76
2022/06/22 07:20:39;;;;;;;3.40;2.67;;;20.40;99.90;;;;;;5077020;28;20602;-75
2022/06/22 07:23:23;;;;;;;9.77;3.27;;;20.30;99.90;;;;;;5077117;28;21256;-75
2022/06/22 07:25:57;;;;;;;3.17;2.97;;;20.20;99.90;;;;;;5077577;28;20585;-75
2022/06/22 07:28:23;;;;;;;4.97;3.30;;;20.20;99.90;;;;;;5077391;28;20575;-75
2022/06/22 07:31:20;;;;;;;5.50;2.90;;;20.10;99.90;;;;;;5077397;28;20581;-76
2022/06/22 07:33:51;;;;;;;4.03;3.27;;;20.10;99.90;;;;;;5073341;28;21005;-75
2022/06/22 07:36:29;;;;;;;8.90;2.80;;;20.00;99.90;;;;;;5072357;28;20709;-75
2022/06/22 07:38:59;;;;;;;5.63;2.80;;;19.80;99.90;;;;;;5075304;28;20566;-75
2022/06/22 07:41:26;;;;;;;5.60;3.03;;;19.80;99.90;;;;;;5074458;28;21164;-75
2022/06/22 07:44:04;;;;;;;6.90;2.80;;;19.70;99.90;;;;;;5072789;28;20972;-74
2022/06/22 07:46:35;;;;;;;4.27;3.10;;;19.40;99.90;;;;;;5074324;28;21008;-75
2022/06/22 07:49:15;;;;;;;11.60;4.93;;;19.50;99.90;;;;;;5074203;28;20714;-75
2022/06/22 07:51:53;;;;;;;4.43;2.73;;;19.50;99.90;;;;;;5074072;28;20610;-75
2022/06/22 07:54:41;;;;;;;5.33;3.10;;;19.70;99.90;;;;;;5077332;28;20709;-75
2022/06/22 07:57:31;;;;;;;6.30;2.67;;;19.80;99.90;;;;;;5074993;28;20971;-74
2022/06/22 08:00:06;;;;;;;2.87;2.70;;;19.90;99.90;;;;;;5075686;28;20958;-74
2022/06/22 08:03:00;;;;;;;2.97;2.60;;;19.80;99.90;;;;;;5074878;28;20629;-75
2022/06/22 08:05:32;;;;;;;3.13;2.77;;;19.90;99.90;;;;;;5073676;28;20697;-76
2022/06/22 08:08:17;;;;;;;3.07;2.77;;;20.00;99.90;;;;;;5075295;28;20724;-75
2022/06/22 08:10:52;;;;;;;3.10;2.70;;;19.80;99.90;;;;;;5075499;28;20619;-75
2022/06/22 08:13:24;;;;;;;4.37;2.90;;;19.70;99.90;;;;;;5075739;28;20578;-75
2022/06/22 08:15:58;;;;;;;4.07;3.00;;;19.70;99.90;;;;;;5077914;28;20621;-75
2022/06/22 08:18:26;;;;;;;6.47;2.93;;;19.50;99.90;;;;;;5074779;28;20582;-74
2022/06/22 08:20:54;;;;;;;6.60;3.27;;;19.40;99.90;;;;;;5073330;28;20621;-75
2022/06/22 08:23:31;;;;;;;7.90;3.30;;;19.30;99.90;;;;;;5073753;28;20638;-75
2022/06/22 08:26:00;;;;;;;3.37;3.03;;;19.40;99.90;;;;;;5072360;28;20968;-75
2022/06/22 08:28:29;;;;;;;5.13;3.43;;;19.30;99.90;;;;;;5073134;28;21182;-75
2022/06/22 08:30:56;;;;;;;3.00;2.90;;;19.20;99.90;;;;;;5072626;28;20610;-72
2022/06/22 08:33:42;;;;;;;3.63;2.83;;;19.10;99.90;;;;;;5073766;28;20618;-73
2022/06/22 08:36:21;;;;;;;4.80;3.43;;;19.10;99.90;;;;;;5073273;28;21124;-72
2022/06/22 08:38:58;;;;;;;5.60;4.33;;;19.10;99.90;;;;;;5073340;28;20582;-72
2022/06/22 08:41:49;;;;;;;8.63;3.60;;;18.90;99.90;;;;;;5073202;28;20573;-72
2022/06/22 08:44:24;;;;;;;4.50;4.07;;;18.90;99.90;;;;;;5072658;28;20610;-73
2022/06/22 08:47:13;;;;;;;3.97;2.83;;;18.90;99.90;;;;;;5072949;28;20566;-72
2022/06/22 08:50:11;;;;;;;20.20;3.97;;;19.10;99.90;;;;;;5074943;28;20645;-72
2022/06/22 08:53:15;;;;;;;5.13;3.40;;;19.30;99.90;;;;;;5077576;28;20547;-72
2022/06/22 08:56:11;;;;;;;4.60;3.13;;;19.20;99.90;;;;;;5039097;28;20621;-72
2022/06/22 08:58:53;;;;;;;3.77;3.00;;;19.10;99.90;;;;;;5076764;28;21246;-73
2022/06/22 09:01:31;;;;;;;6.93;3.23;;;19.10;99.90;;;;;;5077433;28;20584;-72
2022/06/22 09:04:15;;;;;;;41.40;31.97;;;19.30;99.90;;;;;;5076771;28;21234;-72
2022/06/22 09:07:01;;;;;;;10.30;5.70;;;19.10;99.90;;;;;;5077318;28;20555;-72
2022/06/22 09:10:12;;;;;;;6.63;4.83;;;18.50;99.90;;;;;;5076776;28;20559;-72
2022/06/22 09:12:46;;;;;;;9.83;4.83;;;18.40;99.90;;;;;;5032310;28;20957;-72
2022/06/22 09:15:37;;;;;;;17.83;16.23;;;18.30;99.90;;;;;;5076953;28;20574;-72
2022/06/22 09:18:13;;;;;;;42.90;39.40;;;18.50;99.90;;;;;;5076887;28;20955;-72
2022/06/22 09:21:03;;;;;;;13.40;6.20;;;18.50;99.90;;;;;;5077103;28;20562;-72
2022/06/22 09:23:40;;;;;;;11.90;6.80;;;18.50;99.90;;;;;;5076453;28;20626;-72
2022/06/22 09:26:09;;;;;;;5.93;5.40;;;18.40;99.90;;;;;;5076833;28;21147;-72
2022/06/22 09:28:58;;;;;;;5.63;5.17;;;18.50;99.90;;;;;;5075314;28;20633;-73
2022/06/22 09:31:27;;;;;;;6.73;5.70;;;18.60;99.90;;;;;;5076803;28;20559;-73
2022/06/22 09:34:00;;;;;;;13.97;6.60;;;18.80;99.90;;;;;;5076164;28;20610;-72
2022/06/22 09:36:43;;;;;;;8.37;6.00;;;19.00;99.90;;;;;;5076147;28;21131;-71
2022/06/22 09:39:34;;;;;;;4.80;4.40;;;19.10;99.90;;;;;;5075707;28;20570;-71
2022/06/22 09:42:00;;;;;;;4.73;4.33;;;19.00;99.90;;;;;;5076581;28;20606;-71
2022/06/22 09:44:48;;;;;;;5.90;5.03;;;19.00;99.90;;;;;;5076493;28;20621;-71
2022/06/22 09:47:36;;;;;;;7.87;5.00;;;19.40;99.90;;;;;;5076138;28;20715;-71
2022/06/22 09:50:20;;;;;;;6.27;5.10;;;19.50;99.90;;;;;;5075500;28;21036;-70
2022/06/22 09:53:04;;;;;;;6.63;5.30;;;19.80;99.90;;;;;;5076241;28;20730;-71
2022/06/22 09:58:36;;;;;;;15.47;5.50;;;19.50;99.90;;;;;;5076133;28;20602;-70
2022/06/22 10:01:20;;;;;;;6.30;5.30;;;19.60;99.90;;;;;;5077350;28;20974;-70
2022/06/22 10:04:27;;;;;;;6.90;5.17;;;19.80;99.90;;;;;;5075747;28;20626;-70
2022/06/22 10:07:12;;;;;;;5.50;4.60;;;20.00;99.90;;;;;;5077310;28;20605;-70
2022/06/22 10:09:57;;;;;;;5.43;4.63;;;20.20;99.90;;;;;;5075971;28;20570;-70
2022/06/22 10:12:56;;;;;;;4.70;4.37;;;20.50;99.90;;;;;;5075549;28;20617;-69
2022/06/22 10:15:48;;;;;;;7.10;5.73;;;20.60;99.90;;;;;;5075727;28;21070;-70
2022/06/22 10:18:44;;;;;;;5.17;4.60;;;20.20;99.90;;;;;;5075057;28;20623;-70
2022/06/22 10:21:42;;;;;;;7.20;5.47;;;20.10;99.90;;;;;;5075462;28;20589;-71
2022/06/22 10:24:50;;;;;;;6.47;5.57;;;19.90;99.90;;;;;;5076495;28;20644;-70
2022/06/22 10:27:49;;;;;;;5.40;4.50;;;20.40;99.90;;;;;;5075925;28;20924;-70
2022/06/22 10:30:44;;;;;;;12.63;5.30;;;20.70;99.90;;;;;;5075951;28;20940;-70
2022/06/22 10:33:15;;;;;;;5.63;4.80;;;20.80;99.90;;;;;;5075598;28;20910;-70
2022/06/22 10:36:06;;;;;;;5.77;5.20;;;21.00;99.90;;;;;;5075086;28;20626;-71
2022/06/22 10:39:10;;;;;;;6.43;5.80;;;20.70;99.90;;;;;;5075053;28;20610;-71
2022/06/22 10:45:20;;;;;;;5.97;4.77;;;20.70;99.90;;;;;;5075006;28;20594;-71
2022/06/22 10:48:18;;;;;;;6.73;5.03;;;20.70;99.90;;;;;;5074976;28;21242;-71
2022/06/22 10:51:34;;;;;;;6.17;5.40;;;20.80;99.90;;;;;;5074312;28;20643;-70
2022/06/22 10:54:20;;;;;;;7.30;4.90;;;21.10;99.90;;;;;;5003483;28;20618;-70
2022/06/22 10:57:14;;;;;;;5.60;5.10;;;21.50;99.90;;;;;;5073127;28;20626;-70
2022/06/22 10:59:40;;;;;;;7.53;5.93;;;20.80;99.90;;;;;;5074261;28;20582;-71
2022/06/22 11:02:25;;;;;;;9.67;5.90;;;20.50;99.90;;;;;;5074148;28;20617;-72
2022/06/22 11:05:26;;;;;;;6.20;5.70;;;20.60;99.90;;;;;;5074044;28;20606;-71
2022/06/22 11:08:19;;;;;;;7.07;5.70;;;20.50;99.90;;;;;;5074599;28;20605;-72
2022/06/22 11:10:57;;;;;;;7.17;6.47;;;20.50;99.90;;;;;;5074394;28;20631;-72
2022/06/22 11:13:29;;;;;;;5.60;5.13;;;20.50;99.90;;;;;;5073372;28;20570;-72
2022/06/22 11:16:34;;;;;;;8.23;5.93;;;20.60;99.90;;;;;;5074387;28;20598;-72
2022/06/22 11:19:23;;;;;;;8.20;5.60;;;21.00;99.90;;;;;;5072700;28;20683;-72
2022/06/22 11:21:59;;;;;;;6.20;5.60;;;21.40;99.90;;;;;;5059952;28;20665;-70
2022/06/22 11:30:48;;;;;;;7.00;5.20;;;21.40;99.90;;;;;;5073931;28;20645;-72
2022/06/22 11:31:39;;;;;;;5.00;4.63;;;21.40;99.90;;;;;;5074081;28;20617;-71
2022/06/22 11:34:46;;;;;;;5.53;5.00;;;21.40;99.90;;;;;;5073782;28;20613;-72
2022/06/22 11:37:22;;;;;;;5.17;4.80;;;21.60;99.90;;;;;;5074053;28;20614;-72
2022/06/22 11:40:02;;;;;;;5.93;5.10;;;21.30;99.90;;;;;;5071717;28;20618;-72
2022/06/22 11:42:59;;;;;;;7.93;5.80;;;21.40;99.90;;;;;;5073921;28;20980;-71
2022/06/22 11:48:26;;;;;;;9.63;5.77;;;21.00;99.90;;;;;;5074142;28;20653;-73
2022/06/22 11:51:09;;;;;;;13.47;6.13;;;20.80;99.90;;;;;;5073677;28;20653;-73
2022/06/22 11:53:59;;;;;;;6.50;6.00;;;21.10;99.90;;;;;;5073643;28;21172;-71
2022/06/22 11:56:56;;;;;;;7.07;6.57;;;21.00;99.90;;;;;;5073767;28;20570;-72
2022/06/22 11:59:28;;;;;;;6.80;6.20;;;20.80;99.90;;;;;;5073589;28;20626;-74
2022/06/22 12:02:34;;;;;;;13.27;5.80;;;20.80;99.90;;;;;;5073986;28;20602;-77
2022/06/22 12:05:38;;;;;;;12.50;6.03;;;20.80;99.90;;;;;;5074065;28;20625;-73
2022/06/22 12:08:42;;;;;;;7.40;6.80;;;20.80;99.90;;;;;;5073629;28;20620;-73
2022/06/22 12:11:19;;;;;;;9.43;6.10;;;20.80;99.90;;;;;;5074511;28;20613;-75
2022/06/22 12:17:02;;;;;;;7.70;7.00;;;20.90;99.90;;;;;;5073673;28;20989;-74
2022/06/22 12:20:04;;;;;;;7.47;6.72;;;21.00;99.90;;;;;;5074136;28;20746;-73
2022/06/22 12:22:52;;;;;;;8.93;7.10;;;21.10;99.90;;;;;;5074603;28;20187;-73
2022/06/22 12:25:49;;;;;;;7.40;6.80;;;21.20;99.90;;;;;;5078341;28;20574;-73
2022/06/22 12:28:52;;;;;;;11.37;6.63;;;21.10;99.90;;;;;;5077903;28;20567;-72
2022/06/22 12:31:22;;;;;;;7.83;7.23;;;21.60;99.90;;;;;;5076633;28;20609;-73
2022/06/22 12:33:54;;;;;;;8.00;7.30;;;21.90;99.90;;;;;;5076519;28;21207;-74
2022/06/22 12:36:45;;;;;;;8.40;7.23;;;21.90;99.90;;;;;;5075961;28;20629;-73
2022/06/22 12:39:21;;;;;;;9.73;7.67;;;22.20;99.90;;;;;;5077686;28;20594;-73
2022/06/22 12:41:50;;;;;;;10.17;8.17;;;22.40;99.90;;;;;;5077731;28;20578;-73
2022/06/22 12:44:37;;;;;;;12.23;8.80;;;22.60;99.90;;;;;;5077100;28;20654;-73
2022/06/22 12:47:03;;;;;;;11.47;10.30;;;22.80;99.90;;;;;;5077758;28;20626;-73
2022/06/22 12:50:14;;;;;;;9.47;8.60;;;22.90;99.90;;;;;;5075818;28;20653;-73
2022/06/22 12:52:47;;;;;;;11.20;9.70;;;23.00;99.90;;;;;;5057414;28;20629;-73
2022/06/22 12:55:20;;;;;;;13.60;9.97;;;22.70;99.90;;;;;;5077625;28;20642;-73
2022/06/22 12:57:56;;;;;;;8.90;8.00;;;22.50;99.90;;;;;;5075496;28;20610;-73
2022/06/22 13:00:23;;;;;;;9.57;8.67;;;22.40;99.90;;;;;;5077415;28;20573;-72
2022/06/22 13:02:56;;;;;;;9.30;8.60;;;22.50;99.90;;;;;;5076499;28;20664;-72
2022/06/22 13:05:33;;;;;;;14.37;9.77;;;22.60;99.90;;;;;;5076426;28;20622;-74
2022/06/22 13:08:07;;;;;;;11.00;10.03;;;22.40;99.90;;;;;;5077198;28;21060;-73
2022/06/22 13:10:40;;;;;;;13.20;12.10;;;22.30;99.90;;;;;;5076359;28;20632;-73
2022/06/22 13:13:13;;;;;;;12.97;11.67;;;22.30;99.90;;;;;;5077094;28;20570;-73
2022/06/22 13:15:42;;;;;;;12.37;11.07;;;22.20;99.90;;;;;;5074901;28;20990;-73
2022/06/22 13:18:30;;;;;;;10.83;9.80;;;22.20;99.90;;;;;;5076434;28;20626;-73
2022/06/22 13:21:34;;;;;;;9.97;9.03;;;22.30;99.90;;;;;;5076372;28;20574;-73
2022/06/22 13:24:16;;;;;;;10.67;9.57;;;22.40;99.90;;;;;;5076152;28;20707;-73
2022/06/22 13:27:22;;;;;;;10.97;9.97;;;22.50;99.90;;;;;;5076787;28;20608;-74
2022/06/22 13:30:17;;;;;;;12.67;11.23;;;22.30;99.90;;;;;;5076857;28;20605;-74
2022/06/22 13:33:10;;;;;;;12.57;11.37;;;22.20;99.90;;;;;;5076852;28;20593;-73
2022/06/22 13:35:50;;;;;;;11.90;10.63;;;21.90;99.90;;;;;;5076036;28;20569;-74
2022/06/22 13:38:16;;;;;;;13.37;11.00;;;21.80;99.90;;;;;;5076198;28;20623;-74
2022/06/22 13:41:10;;;;;;;14.73;12.30;;;21.80;99.90;;;;;;5076540;28;20623;-74
2022/06/22 13:43:58;;;;;;;13.47;12.07;;;21.80;99.90;;;;;;5076799;28;20657;-74
2022/06/22 13:46:56;;;;;;;13.30;11.93;;;21.80;99.90;;;;;;5076324;28;21096;-73
2022/06/22 13:49:33;;;;;;;13.13;11.17;;;21.80;99.90;;;;;;5076131;28;20645;-74
2022/06/22 13:52:12;;;;;;;15.93;13.07;;;21.80;99.90;;;;;;5076408;28;21008;-73
2022/06/22 13:55:00;;;;;;;36.17;30.43;;;21.90;99.90;;;;;;5075974;28;20618;-73
2022/06/22 13:57:39;;;;;;;22.13;19.93;;;21.90;99.90;;;;;;5076905;28;20594;-74
2022/06/22 14:00:15;;;;;;;16.47;14.90;;;21.80;99.90;;;;;;5074827;28;21180;-73
2022/06/22 14:02:58;;;;;;;14.83;13.43;;;21.80;99.90;;;;;;5076358;28;20625;-73
2022/06/22 14:05:38;;;;;;;27.00;13.63;;;21.70;99.90;;;;;;5076783;28;20621;-74
2022/06/22 14:08:16;;;;;;;14.80;12.67;;;21.70;99.90;;;;;;5075634;28;20582;-73
2022/06/22 14:10:58;;;;;;;12.23;10.93;;;21.60;99.90;;;;;;5075656;28;20614;-74
2022/06/22 14:13:42;;;;;;;13.40;12.10;;;21.60;99.90;;;;;;5075751;28;20581;-74
2022/06/22 14:16:35;;;;;;;13.33;12.13;;;21.50;99.90;;;;;;5075950;28;20627;-73
2022/06/22 14:19:17;;;;;;;13.57;12.17;;;21.50;99.90;;;;;;5075116;28;21189;-73